sensor_id;sensor_type;location;lat;lon;timestamp;temperature;humidity
19256;DHT22;9762;52.490;13.410;2023-03-01T00:01:07;6.90;73.10
19256;DHT22;9762;52.490;13.410;2023-03-01T00:03:34;6.80;73.00
19256;DHT22;9762;52.490;13.410;2023-03-01T00:06:00;6.80;73.60
19256;DHT22;9762;52.490;13.410;2023-03-01T00:08:27;6.80;73.80
19256;DHT22;9762;52.490;13.410;2023-03-01T00:11:09;6.80;73.90
19256;DHT22;9762;52.490;13.410;2023-03-01T00:13:35;6.70;73.70
19256;DHT22;9762;52.490;13.410;2023-03-01T00:16:04;6.70;73.90
19256;DHT22;9762;52.490;13.410;2023-03-01T00:18:29;6.70;74.00
19256;DHT22;9762;52.490;13.410;2023-03-01T00:20:55;6.70;74.10
19256;DHT22;9762;52.490;13.410;2023-03-01T00:23:22;6.60;74.20
19256;DHT22;9762;52.490;13.410;2023-03-01T00:25:48;6.70;74.60
19256;DHT22;9762;52.490;13.410;2023-03-01T00:28:14;6.60;74.60
19256;DHT22;9762;52.490;13.410;2023-03-01T00:30:40;6.60;74.60
19256;DHT22;9762;52.490;13.410;2023-03-01T00:33:05;6.60;74.60
19256;DHT22;9762;52.490;13.410;2023-03-01T00:35:34;6.60;75.10
19256;DHT22;9762;52.490;13.410;2023-03-01T00:38:01;6.60;75.00
19256;DHT22;9762;52.490;13.410;2023-03-01T00:40:28;6.50;75.70
19256;DHT22;9762;52.490;13.410;2023-03-01T00:42:54;6.50;74.90
19256;DHT22;9762;52.490;13.410;2023-03-01T00:45:19;6.50;75.00
19256;DHT22;9762;52.490;13.410;2023-03-01T00:47:45;6.50;75.20
19256;DHT22;9762;52.490;13.410;2023-03-01T00:50:11;6.50;75.30
19256;DHT22;9762;52.490;13.410;2023-03-01T00:52:37;6.50;75.10
19256;DHT22;9762;52.490;13.410;2023-03-01T00:55:03;6.50;75.30
19256;DHT22;9762;52.490;13.410;2023-03-01T00:57:29;6.50;75.50
19256;DHT22;9762;52.490;13.410;2023-03-01T00:59:55;6.50;75.60
19256;DHT22;9762;52.490;13.410;2023-03-01T01:02:21;6.50;75.70
19256;DHT22;9762;52.490;13.410;2023-03-01T01:04:46;6.50;75.60
19256;DHT22;9762;52.490;13.410;2023-03-01T01:07:13;6.50;75.60
19256;DHT22;9762;52.490;13.410;2023-03-01T01:09:39;6.50;75.50
19256;DHT22;9762;52.490;13.410;2023-03-01T01:12:05;6.50;75.60
19256;DHT22;9762;52.490;13.410;2023-03-01T01:14:30;6.50;75.60
19256;DHT22;9762;52.490;13.410;2023-03-01T01:16:56;6.50;75.70
19256;DHT22;9762;52.490;13.410;2023-03-01T01:19:22;6.40;75.60
19256;DHT22;9762;52.490;13.410;2023-03-01T01:21:48;6.50;75.80
19256;DHT22;9762;52.490;13.410;2023-03-01T01:24:14;6.40;75.70
19256;DHT22;9762;52.490;13.410;2023-03-01T01:26:40;6.50;75.90
19256;DHT22;9762;52.490;13.410;2023-03-01T01:29:06;6.40;76.20
19256;DHT22;9762;52.490;13.410;2023-03-01T01:31:33;6.40;76.40
19256;DHT22;9762;52.490;13.410;2023-03-01T01:34:00;6.40;76.70
19256;DHT22;9762;52.490;13.410;2023-03-01T01:36:27;6.40;77.10
19256;DHT22;9762;52.490;13.410;2023-03-01T01:38:52;6.40;77.20
19256;DHT22;9762;52.490;13.410;2023-03-01T01:41:19;6.40;76.90
19256;DHT22;9762;52.490;13.410;2023-03-01T01:44:08;6.40;77.10
19256;DHT22;9762;52.490;13.410;2023-03-01T01:46:39;6.40;77.20
19256;DHT22;9762;52.490;13.410;2023-03-01T01:49:22;6.40;76.90
19256;DHT22;9762;52.490;13.410;2023-03-01T01:51:54;6.40;77.00
19256;DHT22;9762;52.490;13.410;2023-03-01T01:54:29;6.40;77.00
19256;DHT22;9762;52.490;13.410;2023-03-01T01:57:00;6.40;77.90
19256;DHT22;9762;52.490;13.410;2023-03-01T01:59:28;6.40;77.20
19256;DHT22;9762;52.490;13.410;2023-03-01T02:01:59;6.40;77.20
19256;DHT22;9762;52.490;13.410;2023-03-01T02:04:25;6.30;76.80
19256;DHT22;9762;52.490;13.410;2023-03-01T02:09:35;6.30;77.10
19256;DHT22;9762;52.490;13.410;2023-03-01T02:12:02;6.30;77.10
19256;DHT22;9762;52.490;13.410;2023-03-01T02:14:28;6.20;77.00
19256;DHT22;9762;52.490;13.410;2023-03-01T02:16:54;6.20;77.20
19256;DHT22;9762;52.490;13.410;2023-03-01T02:19:55;6.20;77.30
19256;DHT22;9762;52.490;13.410;2023-03-01T02:22:28;6.30;77.00
19256;DHT22;9762;52.490;13.410;2023-03-01T02:30:42;6.10;77.60
19256;DHT22;9762;52.490;13.410;2023-03-01T02:33:27;6.10;77.80
19256;DHT22;9762;52.490;13.410;2023-03-01T02:35:54;6.10;78.20
19256;DHT22;9762;52.490;13.410;2023-03-01T02:38:21;6.00;78.20
19256;DHT22;9762;52.490;13.410;2023-03-01T02:40:50;6.00;78.20
19256;DHT22;9762;52.490;13.410;2023-03-01T02:43:18;6.00;78.60
19256;DHT22;9762;52.490;13.410;2023-03-01T02:45:52;6.00;78.70
19256;DHT22;9762;52.490;13.410;2023-03-01T02:48:19;6.00;78.90
19256;DHT22;9762;52.490;13.410;2023-03-01T02:53:39;6.00;79.10
19256;DHT22;9762;52.490;13.410;2023-03-01T02:56:07;6.00;79.20
19256;DHT22;9762;52.490;13.410;2023-03-01T02:58:41;6.10;79.20
19256;DHT22;9762;52.490;13.410;2023-03-01T03:01:10;6.00;78.70
19256;DHT22;9762;52.490;13.410;2023-03-01T03:03:36;6.00;78.40
19256;DHT22;9762;52.490;13.410;2023-03-01T03:06:02;6.00;78.50
19256;DHT22;9762;52.490;13.410;2023-03-01T03:08:27;6.00;78.20
19256;DHT22;9762;52.490;13.410;2023-03-01T03:10:53;6.00;78.50
19256;DHT22;9762;52.490;13.410;2023-03-01T03:13:18;6.00;78.60
19256;DHT22;9762;52.490;13.410;2023-03-01T03:15:44;5.90;78.40
19256;DHT22;9762;52.490;13.410;2023-03-01T03:18:15;5.90;78.50
19256;DHT22;9762;52.490;13.410;2023-03-01T03:20:43;5.90;78.50
19256;DHT22;9762;52.490;13.410;2023-03-01T03:23:09;5.80;78.50
19256;DHT22;9762;52.490;13.410;2023-03-01T03:25:34;5.80;78.80
19256;DHT22;9762;52.490;13.410;2023-03-01T03:28:04;5.80;79.00
19256;DHT22;9762;52.490;13.410;2023-03-01T03:30:36;5.80;79.30
19256;DHT22;9762;52.490;13.410;2023-03-01T03:33:05;5.80;79.30
19256;DHT22;9762;52.490;13.410;2023-03-01T03:35:39;5.80;79.60
19256;DHT22;9762;52.490;13.410;2023-03-01T03:38:08;5.70;79.30
19256;DHT22;9762;52.490;13.410;2023-03-01T03:40:42;5.70;79.50
19256;DHT22;9762;52.490;13.410;2023-03-01T03:43:11;5.70;79.50
19256;DHT22;9762;52.490;13.410;2023-03-01T03:45:37;5.60;79.70
19256;DHT22;9762;52.490;13.410;2023-03-01T03:48:05;5.60;79.30
19256;DHT22;9762;52.490;13.410;2023-03-01T03:50:32;5.60;79.10
19256;DHT22;9762;52.490;13.410;2023-03-01T03:53:00;5.50;79.20
19256;DHT22;9762;52.490;13.410;2023-03-01T03:55:25;5.50;79.50
19256;DHT22;9762;52.490;13.410;2023-03-01T03:57:57;5.50;79.50
19256;DHT22;9762;52.490;13.410;2023-03-01T04:00:26;5.50;79.80
19256;DHT22;9762;52.490;13.410;2023-03-01T04:02:51;5.40;80.10
19256;DHT22;9762;52.490;13.410;2023-03-01T04:05:21;5.40;80.40
19256;DHT22;9762;52.490;13.410;2023-03-01T04:07:47;5.40;80.60
19256;DHT22;9762;52.490;13.410;2023-03-01T04:10:17;5.40;81.30
19256;DHT22;9762;52.490;13.410;2023-03-01T04:12:43;5.40;80.90
19256;DHT22;9762;52.490;13.410;2023-03-01T04:15:12;5.30;80.80
19256;DHT22;9762;52.490;13.410;2023-03-01T04:17:43;5.30;81.30
19256;DHT22;9762;52.490;13.410;2023-03-01T04:20:14;5.20;82.10
19256;DHT22;9762;52.490;13.410;2023-03-01T04:22:42;5.20;81.60
19256;DHT22;9762;52.490;13.410;2023-03-01T04:25:09;5.20;82.00
19256;DHT22;9762;52.490;13.410;2023-03-01T04:27:35;5.20;82.80
19256;DHT22;9762;52.490;13.410;2023-03-01T04:30:02;5.20;82.00
19256;DHT22;9762;52.490;13.410;2023-03-01T04:32:28;5.10;82.00
19256;DHT22;9762;52.490;13.410;2023-03-01T04:34:53;5.10;82.20
19256;DHT22;9762;52.490;13.410;2023-03-01T04:37:19;5.10;82.70
19256;DHT22;9762;52.490;13.410;2023-03-01T04:39:44;5.00;82.30
19256;DHT22;9762;52.490;13.410;2023-03-01T04:42:14;5.00;82.50
19256;DHT22;9762;52.490;13.410;2023-03-01T04:44:40;5.00;82.70
19256;DHT22;9762;52.490;13.410;2023-03-01T04:47:06;5.00;82.40
19256;DHT22;9762;52.490;13.410;2023-03-01T04:49:31;5.00;82.20
19256;DHT22;9762;52.490;13.410;2023-03-01T04:51:57;5.00;82.10
19256;DHT22;9762;52.490;13.410;2023-03-01T04:54:33;5.00;82.10
19256;DHT22;9762;52.490;13.410;2023-03-01T04:56:59;5.00;81.80
19256;DHT22;9762;52.490;13.410;2023-03-01T04:59:25;5.00;81.70
19256;DHT22;9762;52.490;13.410;2023-03-01T05:01:52;5.00;82.00
19256;DHT22;9762;52.490;13.410;2023-03-01T05:04:21;5.00;82.50
19256;DHT22;9762;52.490;13.410;2023-03-01T05:06:47;4.90;82.20
19256;DHT22;9762;52.490;13.410;2023-03-01T05:09:13;4.90;82.30
19256;DHT22;9762;52.490;13.410;2023-03-01T05:11:38;4.90;82.50
19256;DHT22;9762;52.490;13.410;2023-03-01T05:14:08;4.90;82.80
19256;DHT22;9762;52.490;13.410;2023-03-01T05:16:34;4.90;83.10
19256;DHT22;9762;52.490;13.410;2023-03-01T05:19:02;4.90;82.60
19256;DHT22;9762;52.490;13.410;2023-03-01T05:21:37;4.90;82.20
19256;DHT22;9762;52.490;13.410;2023-03-01T05:24:23;4.90;82.10
19256;DHT22;9762;52.490;13.410;2023-03-01T05:26:49;4.90;82.30
19256;DHT22;9762;52.490;13.410;2023-03-01T05:29:17;4.90;82.70
19256;DHT22;9762;52.490;13.410;2023-03-01T05:31:44;4.90;83.20
19256;DHT22;9762;52.490;13.410;2023-03-01T05:34:09;4.90;84.90
19256;DHT22;9762;52.490;13.410;2023-03-01T05:36:38;4.90;84.30
19256;DHT22;9762;52.490;13.410;2023-03-01T05:39:03;4.90;84.50
19256;DHT22;9762;52.490;13.410;2023-03-01T05:41:29;4.80;83.70
19256;DHT22;9762;52.490;13.410;2023-03-01T05:43:55;4.80;83.90
19256;DHT22;9762;52.490;13.410;2023-03-01T05:46:21;4.80;83.80
19256;DHT22;9762;52.490;13.410;2023-03-01T05:48:48;4.80;83.60
19256;DHT22;9762;52.490;13.410;2023-03-01T05:51:14;4.80;83.90
19256;DHT22;9762;52.490;13.410;2023-03-01T05:53:40;4.80;83.90
19256;DHT22;9762;52.490;13.410;2023-03-01T05:56:05;4.90;84.00
19256;DHT22;9762;52.490;13.410;2023-03-01T05:58:31;4.90;83.80
19256;DHT22;9762;52.490;13.410;2023-03-01T06:00:57;4.90;83.30
19256;DHT22;9762;52.490;13.410;2023-03-01T06:03:23;4.80;83.30
19256;DHT22;9762;52.490;13.410;2023-03-01T06:05:49;4.80;83.40
19256;DHT22;9762;52.490;13.410;2023-03-01T06:08:14;4.80;83.60
19256;DHT22;9762;52.490;13.410;2023-03-01T06:10:40;4.70;83.80
19256;DHT22;9762;52.490;13.410;2023-03-01T06:13:06;4.70;84.20
19256;DHT22;9762;52.490;13.410;2023-03-01T06:15:31;4.70;84.20
19256;DHT22;9762;52.490;13.410;2023-03-01T06:17:57;4.80;84.10
19256;DHT22;9762;52.490;13.410;2023-03-01T06:20:24;4.70;84.20
19256;DHT22;9762;52.490;13.410;2023-03-01T06:22:50;4.70;85.50
19256;DHT22;9762;52.490;13.410;2023-03-01T06:25:19;4.60;84.90
19256;DHT22;9762;52.490;13.410;2023-03-01T06:27:45;4.60;85.60
19256;DHT22;9762;52.490;13.410;2023-03-01T06:30:13;4.70;85.80
19256;DHT22;9762;52.490;13.410;2023-03-01T06:32:40;4.70;85.40
19256;DHT22;9762;52.490;13.410;2023-03-01T06:35:08;4.70;85.10
19256;DHT22;9762;52.490;13.410;2023-03-01T06:37:33;4.60;85.50
19256;DHT22;9762;52.490;13.410;2023-03-01T06:40:01;4.70;85.80
19256;DHT22;9762;52.490;13.410;2023-03-01T06:42:32;4.70;86.00
19256;DHT22;9762;52.490;13.410;2023-03-01T06:44:57;4.70;85.60
19256;DHT22;9762;52.490;13.410;2023-03-01T06:47:23;4.70;86.40
19256;DHT22;9762;52.490;13.410;2023-03-01T06:49:49;4.70;86.10
19256;DHT22;9762;52.490;13.410;2023-03-01T06:52:14;4.80;85.60
19256;DHT22;9762;52.490;13.410;2023-03-01T06:54:40;4.90;85.50
19256;DHT22;9762;52.490;13.410;2023-03-01T06:57:05;4.90;85.30
19256;DHT22;9762;52.490;13.410;2023-03-01T06:59:31;5.00;85.10
19256;DHT22;9762;52.490;13.410;2023-03-01T07:01:56;5.10;84.90
19256;DHT22;9762;52.490;13.410;2023-03-01T07:04:22;5.10;84.60
19256;DHT22;9762;52.490;13.410;2023-03-01T07:06:48;5.20;84.60
19256;DHT22;9762;52.490;13.410;2023-03-01T07:09:21;5.30;84.60
19256;DHT22;9762;52.490;13.410;2023-03-01T07:11:47;5.30;84.90
19256;DHT22;9762;52.490;13.410;2023-03-01T07:14:13;5.40;84.90
19256;DHT22;9762;52.490;13.410;2023-03-01T07:16:38;5.40;84.90
19256;DHT22;9762;52.490;13.410;2023-03-01T07:19:04;5.50;85.10
19256;DHT22;9762;52.490;13.410;2023-03-01T07:21:30;5.50;85.20
19256;DHT22;9762;52.490;13.410;2023-03-01T07:23:56;5.60;85.30
19256;DHT22;9762;52.490;13.410;2023-03-01T07:26:22;5.60;85.10
19256;DHT22;9762;52.490;13.410;2023-03-01T07:28:47;5.70;85.10
19256;DHT22;9762;52.490;13.410;2023-03-01T07:31:13;5.80;85.30
19256;DHT22;9762;52.490;13.410;2023-03-01T07:33:39;5.80;85.00
19256;DHT22;9762;52.490;13.410;2023-03-01T07:36:05;5.90;85.10
19256;DHT22;9762;52.490;13.410;2023-03-01T07:38:32;5.90;85.30
19256;DHT22;9762;52.490;13.410;2023-03-01T07:41:02;5.90;85.80
19256;DHT22;9762;52.490;13.410;2023-03-01T07:43:29;6.00;85.70
19256;DHT22;9762;52.490;13.410;2023-03-01T07:45:58;6.10;85.50
19256;DHT22;9762;52.490;13.410;2023-03-01T07:48:23;6.10;85.20
19256;DHT22;9762;52.490;13.410;2023-03-01T07:50:49;6.20;85.20
19256;DHT22;9762;52.490;13.410;2023-03-01T07:53:15;6.30;84.90
19256;DHT22;9762;52.490;13.410;2023-03-01T07:55:40;6.30;84.90
19256;DHT22;9762;52.490;13.410;2023-03-01T07:58:06;6.40;84.70
19256;DHT22;9762;52.490;13.410;2023-03-01T08:00:31;6.40;85.90
19256;DHT22;9762;52.490;13.410;2023-03-01T08:03:00;6.50;88.30
19256;DHT22;9762;52.490;13.410;2023-03-01T08:05:27;6.60;89.50
19256;DHT22;9762;52.490;13.410;2023-03-01T08:07:53;6.60;89.30
19256;DHT22;9762;52.490;13.410;2023-03-01T08:10:20;6.70;89.60
19256;DHT22;9762;52.490;13.410;2023-03-01T08:12:45;6.70;89.10
19256;DHT22;9762;52.490;13.410;2023-03-01T08:15:11;6.80;88.90
19256;DHT22;9762;52.490;13.410;2023-03-01T08:17:37;6.80;88.50
19256;DHT22;9762;52.490;13.410;2023-03-01T08:20:03;7.00;88.20
19256;DHT22;9762;52.490;13.410;2023-03-01T08:22:31;7.00;88.20
19256;DHT22;9762;52.490;13.410;2023-03-01T08:24:57;7.10;86.40
19256;DHT22;9762;52.490;13.410;2023-03-01T08:27:22;7.20;87.00
19256;DHT22;9762;52.490;13.410;2023-03-01T08:29:48;7.20;86.90
19256;DHT22;9762;52.490;13.410;2023-03-01T08:32:13;7.30;87.30
19256;DHT22;9762;52.490;13.410;2023-03-01T08:34:39;7.40;87.20
19256;DHT22;9762;52.490;13.410;2023-03-01T08:37:05;7.50;86.60
19256;DHT22;9762;52.490;13.410;2023-03-01T08:39:30;7.60;86.70
19256;DHT22;9762;52.490;13.410;2023-03-01T08:41:56;7.60;85.60
19256;DHT22;9762;52.490;13.410;2023-03-01T08:44:22;7.60;85.60
19256;DHT22;9762;52.490;13.410;2023-03-01T08:46:48;7.70;85.70
19256;DHT22;9762;52.490;13.410;2023-03-01T08:49:17;7.80;86.20
19256;DHT22;9762;52.490;13.410;2023-03-01T08:51:43;7.90;84.80
19256;DHT22;9762;52.490;13.410;2023-03-01T08:54:14;8.00;83.40
19256;DHT22;9762;52.490;13.410;2023-03-01T08:56:40;8.10;81.40
19256;DHT22;9762;52.490;13.410;2023-03-01T08:59:06;8.10;81.40
19256;DHT22;9762;52.490;13.410;2023-03-01T09:01:32;8.20;80.20
19256;DHT22;9762;52.490;13.410;2023-03-01T09:03:58;8.20;79.50
19256;DHT22;9762;52.490;13.410;2023-03-01T09:06:23;8.30;77.90
19256;DHT22;9762;52.490;13.410;2023-03-01T09:08:49;8.30;77.30
19256;DHT22;9762;52.490;13.410;2023-03-01T09:11:18;8.40;77.50
19256;DHT22;9762;52.490;13.410;2023-03-01T09:13:45;8.40;74.20
19256;DHT22;9762;52.490;13.410;2023-03-01T09:16:13;8.40;71.90
19256;DHT22;9762;52.490;13.410;2023-03-01T09:18:39;8.50;72.20
19256;DHT22;9762;52.490;13.410;2023-03-01T09:21:10;8.50;72.80
19256;DHT22;9762;52.490;13.410;2023-03-01T09:23:37;8.50;72.70
19256;DHT22;9762;52.490;13.410;2023-03-01T09:26:07;8.60;73.80
19256;DHT22;9762;52.490;13.410;2023-03-01T09:28:35;8.60;72.20
19256;DHT22;9762;52.490;13.410;2023-03-01T09:31:02;8.70;71.40
19256;DHT22;9762;52.490;13.410;2023-03-01T09:33:29;8.70;71.10
19256;DHT22;9762;52.490;13.410;2023-03-01T09:36:00;8.80;71.60
19256;DHT22;9762;52.490;13.410;2023-03-01T09:38:26;8.90;92.20
19256;DHT22;9762;52.490;13.410;2023-03-01T09:40:52;9.00;80.00
19256;DHT22;9762;52.490;13.410;2023-03-01T09:43:43;9.10;75.50
19256;DHT22;9762;52.490;13.410;2023-03-01T09:46:12;9.10;72.10
19256;DHT22;9762;52.490;13.410;2023-03-01T09:51:22;9.20;73.20
19256;DHT22;9762;52.490;13.410;2023-03-01T09:53:50;9.30;75.60
19256;DHT22;9762;52.490;13.410;2023-03-01T09:59:30;9.40;67.10
19256;DHT22;9762;52.490;13.410;2023-03-01T10:02:14;9.40;66.80
19256;DHT22;9762;52.490;13.410;2023-03-01T10:04:51;9.40;66.10
19256;DHT22;9762;52.490;13.410;2023-03-01T10:10:08;9.70;65.80
19256;DHT22;9762;52.490;13.410;2023-03-01T10:12:40;9.70;64.30
19256;DHT22;9762;52.490;13.410;2023-03-01T10:15:25;9.80;64.40
19256;DHT22;9762;52.490;13.410;2023-03-01T10:18:09;9.90;64.80
19256;DHT22;9762;52.490;13.410;2023-03-01T10:21:02;10.00;65.30
19256;DHT22;9762;52.490;13.410;2023-03-01T10:23:31;10.20;64.70
19256;DHT22;9762;52.490;13.410;2023-03-01T10:29:03;10.30;63.30
19256;DHT22;9762;52.490;13.410;2023-03-01T10:31:47;10.30;63.00
19256;DHT22;9762;52.490;13.410;2023-03-01T10:37:08;10.40;64.20
19256;DHT22;9762;52.490;13.410;2023-03-01T10:39:35;10.50;64.50
19256;DHT22;9762;52.490;13.410;2023-03-01T10:42:06;10.60;63.80
19256;DHT22;9762;52.490;13.410;2023-03-01T10:44:49;10.60;63.20
19256;DHT22;9762;52.490;13.410;2023-03-01T10:47:21;10.70;62.80
19256;DHT22;9762;52.490;13.410;2023-03-01T10:52:24;10.80;62.20
19256;DHT22;9762;52.490;13.410;2023-03-01T10:55:23;10.80;61.50
19256;DHT22;9762;52.490;13.410;2023-03-01T10:57:43;10.80;61.10
19256;DHT22;9762;52.490;13.410;2023-03-01T11:02:48;10.90;61.30
19256;DHT22;9762;52.490;13.410;2023-03-01T11:07:49;11.00;60.70
19256;DHT22;9762;52.490;13.410;2023-03-01T11:10:39;11.10;60.80
19256;DHT22;9762;52.490;13.410;2023-03-01T11:13:16;11.10;60.20
19256;DHT22;9762;52.490;13.410;2023-03-01T11:15:43;11.20;59.30
19256;DHT22;9762;52.490;13.410;2023-03-01T11:18:23;11.50;59.30
19256;DHT22;9762;52.490;13.410;2023-03-01T11:20:51;12.30;58.70
19256;DHT22;9762;52.490;13.410;2023-03-01T11:23:18;13.30;57.60
19256;DHT22;9762;52.490;13.410;2023-03-01T11:25:55;14.50;56.30
19256;DHT22;9762;52.490;13.410;2023-03-01T11:28:22;15.60;76.30
19256;DHT22;9762;52.490;13.410;2023-03-01T11:31:08;16.50;53.70
19256;DHT22;9762;52.490;13.410;2023-03-01T11:36:50;17.80;50.60
19256;DHT22;9762;52.490;13.410;2023-03-01T11:39:25;18.00;49.90
19256;DHT22;9762;52.490;13.410;2023-03-01T11:42:00;18.10;49.30
19256;DHT22;9762;52.490;13.410;2023-03-01T11:44:30;18.20;48.90
19256;DHT22;9762;52.490;13.410;2023-03-01T11:47:33;18.50;47.90
19256;DHT22;9762;52.490;13.410;2023-03-01T11:52:43;19.40;46.20
19256;DHT22;9762;52.490;13.410;2023-03-01T12:00:52;20.00;42.70
19256;DHT22;9762;52.490;13.410;2023-03-01T12:03:28;19.60;43.40
19256;DHT22;9762;52.490;13.410;2023-03-01T12:06:06;19.20;42.90
19256;DHT22;9762;52.490;13.410;2023-03-01T12:08:48;18.80;42.70
19256;DHT22;9762;52.490;13.410;2023-03-01T12:11:53;18.40;42.90
19256;DHT22;9762;52.490;13.410;2023-03-01T12:28:04;16.70;43.50
19256;DHT22;9762;52.490;13.410;2023-03-01T12:43:58;17.30;45.20
19256;DHT22;9762;52.490;13.410;2023-03-01T12:49:14;18.00;41.70
19256;DHT22;9762;52.490;13.410;2023-03-01T12:51:45;18.10;40.80
19256;DHT22;9762;52.490;13.410;2023-03-01T12:54:16;18.10;40.40
19256;DHT22;9762;52.490;13.410;2023-03-01T12:56:46;18.00;40.80
19256;DHT22;9762;52.490;13.410;2023-03-01T12:59:23;17.90;40.70
19256;DHT22;9762;52.490;13.410;2023-03-01T13:02:20;17.90;41.10
19256;DHT22;9762;52.490;13.410;2023-03-01T13:05:19;18.00;41.40
19256;DHT22;9762;52.490;13.410;2023-03-01T13:10:58;18.40;50.70
19256;DHT22;9762;52.490;13.410;2023-03-01T13:13:48;18.50;60.30
19256;DHT22;9762;52.490;13.410;2023-03-01T13:19:38;18.90;39.90
19256;DHT22;9762;52.490;13.410;2023-03-01T13:22:27;19.00;39.50
19256;DHT22;9762;52.490;13.410;2023-03-01T13:25:10;19.10;39.30
19256;DHT22;9762;52.490;13.410;2023-03-01T13:27:42;19.20;38.40
19256;DHT22;9762;52.490;13.410;2023-03-01T13:33:33;19.20;37.30
19256;DHT22;9762;52.490;13.410;2023-03-01T13:36:04;19.20;37.90
19256;DHT22;9762;52.490;13.410;2023-03-01T13:44:33;19.30;36.50
19256;DHT22;9762;52.490;13.410;2023-03-01T13:50:02;19.10;38.70
19256;DHT22;9762;52.490;13.410;2023-03-01T13:52:45;18.90;37.80
19256;DHT22;9762;52.490;13.410;2023-03-01T13:55:34;18.70;38.00
19256;DHT22;9762;52.490;13.410;2023-03-01T13:58:05;18.60;38.30
19256;DHT22;9762;52.490;13.410;2023-03-01T14:00:54;18.40;38.40
19256;DHT22;9762;52.490;13.410;2023-03-01T14:03:29;18.20;38.90
19256;DHT22;9762;52.490;13.410;2023-03-01T14:05:59;18.00;39.30
19256;DHT22;9762;52.490;13.410;2023-03-01T14:13:58;17.50;39.60
19256;DHT22;9762;52.490;13.410;2023-03-01T14:19:27;17.00;40.40
19256;DHT22;9762;52.490;13.410;2023-03-01T14:25:00;16.60;41.20
19256;DHT22;9762;52.490;13.410;2023-03-01T14:27:44;16.30;41.30
19256;DHT22;9762;52.490;13.410;2023-03-01T14:30:26;16.10;41.90
19256;DHT22;9762;52.490;13.410;2023-03-01T14:32:57;15.90;42.20
19256;DHT22;9762;52.490;13.410;2023-03-01T14:35:33;15.80;42.30
19256;DHT22;9762;52.490;13.410;2023-03-01T14:38:04;15.60;42.30
19256;DHT22;9762;52.490;13.410;2023-03-01T14:40:33;15.50;45.40
19256;DHT22;9762;52.490;13.410;2023-03-01T14:43:04;15.40;44.20
19256;DHT22;9762;52.490;13.410;2023-03-01T14:45:34;15.30;43.80
19256;DHT22;9762;52.490;13.410;2023-03-01T14:48:04;15.20;43.70
19256;DHT22;9762;52.490;13.410;2023-03-01T14:50:50;15.00;44.50
19256;DHT22;9762;52.490;13.410;2023-03-01T14:53:38;14.80;44.90
19256;DHT22;9762;52.490;13.410;2023-03-01T14:56:16;14.70;45.90
19256;DHT22;9762;52.490;13.410;2023-03-01T14:58:44;14.50;46.30
19256;DHT22;9762;52.490;13.410;2023-03-01T15:01:17;14.50;47.10
19256;DHT22;9762;52.490;13.410;2023-03-01T15:03:46;14.40;47.60
19256;DHT22;9762;52.490;13.410;2023-03-01T15:06:18;14.30;47.80
19256;DHT22;9762;52.490;13.410;2023-03-01T15:08:52;14.20;48.10
19256;DHT22;9762;52.490;13.410;2023-03-01T15:11:27;14.20;48.70
19256;DHT22;9762;52.490;13.410;2023-03-01T15:13:54;14.10;49.00
19256;DHT22;9762;52.490;13.410;2023-03-01T15:16:24;14.00;49.40
19256;DHT22;9762;52.490;13.410;2023-03-01T15:19:15;13.90;51.80
19256;DHT22;9762;52.490;13.410;2023-03-01T15:21:47;13.80;64.10
19256;DHT22;9762;52.490;13.410;2023-03-01T15:29:27;13.80;63.00
19256;DHT22;9762;52.490;13.410;2023-03-01T15:34:50;13.70;57.40
19256;DHT22;9762;52.490;13.410;2023-03-01T15:37:38;13.70;51.20
19256;DHT22;9762;52.490;13.410;2023-03-01T15:43:01;13.60;51.00
19256;DHT22;9762;52.490;13.410;2023-03-01T15:45:39;13.60;51.10
19256;DHT22;9762;52.490;13.410;2023-03-01T15:48:20;13.50;51.30
19256;DHT22;9762;52.490;13.410;2023-03-01T15:50:57;13.40;67.50
19256;DHT22;9762;52.490;13.410;2023-03-01T15:53:27;13.30;53.10
19256;DHT22;9762;52.490;13.410;2023-03-01T15:55:53;13.30;68.80
19256;DHT22;9762;52.490;13.410;2023-03-01T15:58:27;13.20;68.80
19256;DHT22;9762;52.490;13.410;2023-03-01T16:00:56;13.20;69.60
19256;DHT22;9762;52.490;13.410;2023-03-01T16:03:27;13.20;69.70
19256;DHT22;9762;52.490;13.410;2023-03-01T16:05:53;13.20;69.60
19256;DHT22;9762;52.490;13.410;2023-03-01T16:08:19;13.20;69.50
19256;DHT22;9762;52.490;13.410;2023-03-01T16:10:48;13.20;69.20
19256;DHT22;9762;52.490;13.410;2023-03-01T16:13:17;13.20;68.50
19256;DHT22;9762;52.490;13.410;2023-03-01T16:15:45;13.20;68.50
19256;DHT22;9762;52.490;13.410;2023-03-01T16:18:11;13.10;69.70
19256;DHT22;9762;52.490;13.410;2023-03-01T16:20:39;13.20;70.90
19256;DHT22;9762;52.490;13.410;2023-03-01T16:25:39;13.00;90.80
19256;DHT22;9762;52.490;13.410;2023-03-01T16:28:06;12.80;52.50
19256;DHT22;9762;52.490;13.410;2023-03-01T16:30:44;12.80;53.40
19256;DHT22;9762;52.490;13.410;2023-03-01T16:33:10;12.70;53.20
19256;DHT22;9762;52.490;13.410;2023-03-01T16:35:39;12.70;53.30
19256;DHT22;9762;52.490;13.410;2023-03-01T16:38:08;12.70;53.40
19256;DHT22;9762;52.490;13.410;2023-03-01T16:40:36;12.60;53.60
19256;DHT22;9762;52.490;13.410;2023-03-01T16:43:04;12.60;53.80
19256;DHT22;9762;52.490;13.410;2023-03-01T16:45:35;12.50;53.90
19256;DHT22;9762;52.490;13.410;2023-03-01T16:48:11;12.50;53.80
19256;DHT22;9762;52.490;13.410;2023-03-01T16:50:42;12.40;53.90
19256;DHT22;9762;52.490;13.410;2023-03-01T16:53:10;12.40;54.00
19256;DHT22;9762;52.490;13.410;2023-03-01T16:55:39;12.40;54.20
19256;DHT22;9762;52.490;13.410;2023-03-01T16:58:15;12.40;54.30
19256;DHT22;9762;52.490;13.410;2023-03-01T17:00:46;12.30;54.80
19256;DHT22;9762;52.490;13.410;2023-03-01T17:03:12;12.30;54.70
19256;DHT22;9762;52.490;13.410;2023-03-01T17:05:40;12.30;54.90
19256;DHT22;9762;52.490;13.410;2023-03-01T17:08:06;12.20;55.00
19256;DHT22;9762;52.490;13.410;2023-03-01T17:10:40;12.20;55.10
19256;DHT22;9762;52.490;13.410;2023-03-01T17:13:08;12.10;55.30
19256;DHT22;9762;52.490;13.410;2023-03-01T17:15:38;12.10;55.40
19256;DHT22;9762;52.490;13.410;2023-03-01T17:18:04;12.10;56.10
19256;DHT22;9762;52.490;13.410;2023-03-01T17:20:30;12.10;57.10
19256;DHT22;9762;52.490;13.410;2023-03-01T17:22:55;12.10;56.70
19256;DHT22;9762;52.490;13.410;2023-03-01T17:25:21;12.10;56.60
19256;DHT22;9762;52.490;13.410;2023-03-01T17:27:46;12.10;56.60
19256;DHT22;9762;52.490;13.410;2023-03-01T17:30:13;12.10;56.70
19256;DHT22;9762;52.490;13.410;2023-03-01T17:32:40;12.00;56.80
19256;DHT22;9762;52.490;13.410;2023-03-01T17:35:06;12.00;57.00
19256;DHT22;9762;52.490;13.410;2023-03-01T17:37:32;12.00;57.30
19256;DHT22;9762;52.490;13.410;2023-03-01T17:39:58;12.00;57.30
19256;DHT22;9762;52.490;13.410;2023-03-01T17:42:24;12.00;57.10
19256;DHT22;9762;52.490;13.410;2023-03-01T17:44:49;12.00;57.00
19256;DHT22;9762;52.490;13.410;2023-03-01T17:47:15;11.90;57.20
19256;DHT22;9762;52.490;13.410;2023-03-01T17:49:41;11.90;57.30
19256;DHT22;9762;52.490;13.410;2023-03-01T17:52:07;11.80;58.00
19256;DHT22;9762;52.490;13.410;2023-03-01T17:54:32;11.80;57.90